sensor_id;sensor_type;location;lat;lon;timestamp;P1;durP1;ratioP1;P2;durP2;ratioP2
25657;SDS011;13517;59.320;18.042;2023-01-08T00:01:53;82.68;;;26.15;;
25657;SDS011;13517;59.320;18.042;2023-01-08T00:04:19;77.57;;;25.52;;
25657;SDS011;13517;59.320;18.042;2023-01-08T00:06:44;93.22;;;26.98;;
25657;SDS011;13517;59.320;18.042;2023-01-08T00:09:10;79.78;;;26.05;;
25657;SDS011;13517;59.320;18.042;2023-01-08T00:11:36;85.57;;;28.05;;
25657;SDS011;13517;59.320;18.042;2023-01-08T00:14:02;84.65;;;26.02;;
25657;SDS011;13517;59.320;18.042;2023-01-08T00:16:27;78.55;;;24.95;;
25657;SDS011;13517;59.320;18.042;2023-01-08T00:18:53;74.13;;;26.38;;
25657;SDS011;13517;59.320;18.042;2023-01-08T00:21:19;76.47;;;24.90;;
25657;SDS011;13517;59.320;18.042;2023-01-08T00:23:44;76.05;;;23.67;;
25657;SDS011;13517;59.320;18.042;2023-01-08T00:26:11;79.10;;;25.40;;
25657;SDS011;13517;59.320;18.042;2023-01-08T00:28:37;68.97;;;24.10;;
25657;SDS011;13517;59.320;18.042;2023-01-08T00:31:03;78.22;;;24.95;;
25657;SDS011;13517;59.320;18.042;2023-01-08T00:33:30;74.45;;;25.48;;
25657;SDS011;13517;59.320;18.042;2023-01-08T00:35:55;74.22;;;23.45;;
25657;SDS011;13517;59.320;18.042;2023-01-08T00:38:25;70.65;;;22.08;;
25657;SDS011;13517;59.320;18.042;2023-01-08T00:40:51;67.97;;;22.50;;
25657;SDS011;13517;59.320;18.042;2023-01-08T00:43:17;52.15;;;21.00;;
25657;SDS011;13517;59.320;18.042;2023-01-08T00:45:42;60.65;;;21.83;;
25657;SDS011;13517;59.320;18.042;2023-01-08T00:48:08;58.75;;;20.80;;
25657;SDS011;13517;59.320;18.042;2023-01-08T00:50:34;48.75;;;19.38;;
25657;SDS011;13517;59.320;18.042;2023-01-08T00:52:59;53.40;;;19.25;;
25657;SDS011;13517;59.320;18.042;2023-01-08T00:55:25;51.03;;;19.80;;
25657;SDS011;13517;59.320;18.042;2023-01-08T00:57:50;46.28;;;17.60;;
25657;SDS011;13517;59.320;18.042;2023-01-08T01:00:16;37.85;;;15.68;;
25657;SDS011;13517;59.320;18.042;2023-01-08T01:02:41;47.45;;;16.20;;
25657;SDS011;13517;59.320;18.042;2023-01-08T01:05:07;35.85;;;14.85;;
25657;SDS011;13517;59.320;18.042;2023-01-08T01:07:35;34.92;;;13.38;;
25657;SDS011;13517;59.320;18.042;2023-01-08T01:10:01;34.50;;;14.48;;
25657;SDS011;13517;59.320;18.042;2023-01-08T01:12:27;34.80;;;13.52;;
25657;SDS011;13517;59.320;18.042;2023-01-08T01:14:52;30.67;;;12.82;;
25657;SDS011;13517;59.320;18.042;2023-01-08T01:17:17;28.98;;;12.77;;
25657;SDS011;13517;59.320;18.042;2023-01-08T01:19:43;27.55;;;11.52;;
25657;SDS011;13517;59.320;18.042;2023-01-08T01:22:08;27.27;;;11.68;;
25657;SDS011;13517;59.320;18.042;2023-01-08T01:24:34;25.23;;;10.93;;
25657;SDS011;13517;59.320;18.042;2023-01-08T01:26:59;22.75;;;11.57;;
25657;SDS011;13517;59.320;18.042;2023-01-08T01:29:25;28.00;;;11.05;;
25657;SDS011;13517;59.320;18.042;2023-01-08T01:31:50;27.27;;;10.40;;
25657;SDS011;13517;59.320;18.042;2023-01-08T01:34:16;28.88;;;11.18;;
25657;SDS011;13517;59.320;18.042;2023-01-08T01:36:41;24.83;;;10.90;;
25657;SDS011;13517;59.320;18.042;2023-01-08T01:39:07;29.02;;;11.23;;
25657;SDS011;13517;59.320;18.042;2023-01-08T01:41:39;24.65;;;10.77;;
25657;SDS011;13517;59.320;18.042;2023-01-08T01:50:02;22.88;;;9.55;;
25657;SDS011;13517;59.320;18.042;2023-01-08T01:53:28;24.02;;;10.82;;
25657;SDS011;13517;59.320;18.042;2023-01-08T01:55:55;22.63;;;10.07;;
25657;SDS011;13517;59.320;18.042;2023-01-08T01:58:22;24.17;;;10.85;;
25657;SDS011;13517;59.320;18.042;2023-01-08T02:00:50;28.67;;;11.40;;
25657;SDS011;13517;59.320;18.042;2023-01-08T02:03:19;23.50;;;10.65;;
25657;SDS011;13517;59.320;18.042;2023-01-08T02:11:16;27.45;;;11.10;;
25657;SDS011;13517;59.320;18.042;2023-01-08T02:14:03;24.60;;;10.23;;
25657;SDS011;13517;59.320;18.042;2023-01-08T02:16:38;32.33;;;10.73;;
25657;SDS011;13517;59.320;18.042;2023-01-08T02:25:01;20.08;;;9.52;;
25657;SDS011;13517;59.320;18.042;2023-01-08T02:27:32;24.50;;;8.73;;
25657;SDS011;13517;59.320;18.042;2023-01-08T02:30:00;26.58;;;9.45;;
25657;SDS011;13517;59.320;18.042;2023-01-08T02:32:27;22.98;;;8.80;;
25657;SDS011;13517;59.320;18.042;2023-01-08T02:35:00;22.27;;;8.27;;
25657;SDS011;13517;59.320;18.042;2023-01-08T02:37:25;20.17;;;8.57;;
25657;SDS011;13517;59.320;18.042;2023-01-08T02:45:52;15.48;;;7.53;;
25657;SDS011;13517;59.320;18.042;2023-01-08T02:48:30;15.75;;;6.90;;
25657;SDS011;13517;59.320;18.042;2023-01-08T02:51:05;19.50;;;6.57;;
25657;SDS011;13517;59.320;18.042;2023-01-08T02:53:36;15.70;;;6.63;;
25657;SDS011;13517;59.320;18.042;2023-01-08T02:56:07;13.00;;;6.07;;
25657;SDS011;13517;59.320;18.042;2023-01-08T02:58:37;12.27;;;5.68;;
25657;SDS011;13517;59.320;18.042;2023-01-08T03:01:05;16.45;;;6.05;;
25657;SDS011;13517;59.320;18.042;2023-01-08T03:03:34;11.55;;;6.32;;
25657;SDS011;13517;59.320;18.042;2023-01-08T03:06:04;11.13;;;5.63;;
25657;SDS011;13517;59.320;18.042;2023-01-08T03:08:40;11.05;;;5.00;;
25657;SDS011;13517;59.320;18.042;2023-01-08T03:11:12;12.88;;;5.43;;
25657;SDS011;13517;59.320;18.042;2023-01-08T03:16:32;8.95;;;4.85;;
25657;SDS011;13517;59.320;18.042;2023-01-08T03:19:28;9.18;;;4.50;;
25657;SDS011;13517;59.320;18.042;2023-01-08T03:21:55;12.10;;;5.20;;
25657;SDS011;13517;59.320;18.042;2023-01-08T03:24:29;10.55;;;5.35;;
25657;SDS011;13517;59.320;18.042;2023-01-08T03:26:58;9.10;;;4.88;;
25657;SDS011;13517;59.320;18.042;2023-01-08T03:29:28;12.75;;;5.18;;
25657;SDS011;13517;59.320;18.042;2023-01-08T03:31:57;8.95;;;4.45;;
25657;SDS011;13517;59.320;18.042;2023-01-08T03:34:27;13.02;;;4.63;;
25657;SDS011;13517;59.320;18.042;2023-01-08T03:36:56;11.85;;;5.18;;
25657;SDS011;13517;59.320;18.042;2023-01-08T03:39:27;10.30;;;5.00;;
25657;SDS011;13517;59.320;18.042;2023-01-08T03:41:58;11.50;;;4.78;;
25657;SDS011;13517;59.320;18.042;2023-01-08T03:44:26;12.20;;;5.07;;
25657;SDS011;13517;59.320;18.042;2023-01-08T03:46:53;8.35;;;4.10;;
25657;SDS011;13517;59.320;18.042;2023-01-08T03:49:20;9.65;;;4.22;;
25657;SDS011;13517;59.320;18.042;2023-01-08T03:51:48;10.23;;;4.53;;
25657;SDS011;13517;59.320;18.042;2023-01-08T03:54:18;9.63;;;4.53;;
25657;SDS011;13517;59.320;18.042;2023-01-08T03:56:45;11.40;;;4.70;;
25657;SDS011;13517;59.320;18.042;2023-01-08T03:59:11;8.20;;;4.20;;
25657;SDS011;13517;59.320;18.042;2023-01-08T04:01:37;11.73;;;4.20;;
25657;SDS011;13517;59.320;18.042;2023-01-08T04:04:03;7.78;;;4.07;;
25657;SDS011;13517;59.320;18.042;2023-01-08T04:06:29;11.07;;;4.32;;
25657;SDS011;13517;59.320;18.042;2023-01-08T04:08:57;9.88;;;4.32;;
25657;SDS011;13517;59.320;18.042;2023-01-08T04:11:23;10.73;;;4.22;;
25657;SDS011;13517;59.320;18.042;2023-01-08T04:13:49;8.48;;;3.95;;
25657;SDS011;13517;59.320;18.042;2023-01-08T04:16:14;8.18;;;4.32;;
25657;SDS011;13517;59.320;18.042;2023-01-08T04:18:39;8.68;;;4.13;;
25657;SDS011;13517;59.320;18.042;2023-01-08T04:21:05;9.18;;;4.60;;
25657;SDS011;13517;59.320;18.042;2023-01-08T04:23:30;9.52;;;4.70;;
25657;SDS011;13517;59.320;18.042;2023-01-08T04:25:56;6.43;;;3.85;;
25657;SDS011;13517;59.320;18.042;2023-01-08T04:28:21;8.23;;;3.88;;
25657;SDS011;13517;59.320;18.042;2023-01-08T04:30:47;8.32;;;3.58;;
25657;SDS011;13517;59.320;18.042;2023-01-08T04:33:12;8.38;;;4.00;;
25657;SDS011;13517;59.320;18.042;2023-01-08T04:35:38;8.35;;;4.22;;
25657;SDS011;13517;59.320;18.042;2023-01-08T04:38:03;8.57;;;4.28;;
25657;SDS011;13517;59.320;18.042;2023-01-08T04:40:30;6.95;;;3.83;;
25657;SDS011;13517;59.320;18.042;2023-01-08T04:42:57;6.93;;;3.67;;
25657;SDS011;13517;59.320;18.042;2023-01-08T04:45:22;7.88;;;3.35;;
25657;SDS011;13517;59.320;18.042;2023-01-08T04:47:48;8.50;;;3.47;;
25657;SDS011;13517;59.320;18.042;2023-01-08T04:50:19;7.78;;;3.50;;
25657;SDS011;13517;59.320;18.042;2023-01-08T04:52:44;6.60;;;3.67;;
25657;SDS011;13517;59.320;18.042;2023-01-08T04:55:09;6.57;;;3.28;;
25657;SDS011;13517;59.320;18.042;2023-01-08T04:57:35;6.60;;;3.17;;
25657;SDS011;13517;59.320;18.042;2023-01-08T05:00:00;6.63;;;3.47;;
25657;SDS011;13517;59.320;18.042;2023-01-08T05:02:25;6.45;;;3.28;;
25657;SDS011;13517;59.320;18.042;2023-01-08T05:04:51;10.85;;;3.45;;
25657;SDS011;13517;59.320;18.042;2023-01-08T05:07:16;10.27;;;3.80;;
25657;SDS011;13517;59.320;18.042;2023-01-08T05:09:42;10.30;;;3.40;;
25657;SDS011;13517;59.320;18.042;2023-01-08T05:12:07;10.48;;;3.50;;
25657;SDS011;13517;59.320;18.042;2023-01-08T05:14:32;8.85;;;3.17;;
25657;SDS011;13517;59.320;18.042;2023-01-08T05:16:58;8.15;;;3.53;;
25657;SDS011;13517;59.320;18.042;2023-01-08T05:19:23;7.00;;;3.67;;
25657;SDS011;13517;59.320;18.042;2023-01-08T05:21:49;6.82;;;3.03;;
25657;SDS011;13517;59.320;18.042;2023-01-08T05:24:14;6.88;;;3.38;;
25657;SDS011;13517;59.320;18.042;2023-01-08T05:26:39;7.30;;;3.28;;
25657;SDS011;13517;59.320;18.042;2023-01-08T05:29:05;8.70;;;3.30;;
25657;SDS011;13517;59.320;18.042;2023-01-08T05:31:30;7.88;;;3.47;;
25657;SDS011;13517;59.320;18.042;2023-01-08T05:33:56;6.60;;;3.58;;
25657;SDS011;13517;59.320;18.042;2023-01-08T05:36:23;6.45;;;3.20;;
25657;SDS011;13517;59.320;18.042;2023-01-08T05:38:48;10.07;;;3.60;;
25657;SDS011;13517;59.320;18.042;2023-01-08T05:41:14;5.95;;;3.28;;
25657;SDS011;13517;59.320;18.042;2023-01-08T05:43:39;6.78;;;3.20;;
25657;SDS011;13517;59.320;18.042;2023-01-08T05:46:05;7.78;;;3.90;;
25657;SDS011;13517;59.320;18.042;2023-01-08T05:48:31;6.38;;;3.53;;
25657;SDS011;13517;59.320;18.042;2023-01-08T05:50:57;7.68;;;3.60;;
25657;SDS011;13517;59.320;18.042;2023-01-08T05:53:23;7.78;;;3.58;;
25657;SDS011;13517;59.320;18.042;2023-01-08T05:55:48;13.38;;;3.38;;
25657;SDS011;13517;59.320;18.042;2023-01-08T05:58:13;9.73;;;3.97;;
25657;SDS011;13517;59.320;18.042;2023-01-08T06:00:42;13.32;;;4.20;;
25657;SDS011;13517;59.320;18.042;2023-01-08T06:03:08;7.53;;;3.58;;
25657;SDS011;13517;59.320;18.042;2023-01-08T06:05:33;9.00;;;4.18;;
25657;SDS011;13517;59.320;18.042;2023-01-08T06:07:59;7.65;;;3.03;;
25657;SDS011;13517;59.320;18.042;2023-01-08T06:10:25;7.25;;;3.17;;
25657;SDS011;13517;59.320;18.042;2023-01-08T06:12:50;6.70;;;3.42;;
25657;SDS011;13517;59.320;18.042;2023-01-08T06:15:16;8.23;;;3.58;;
25657;SDS011;13517;59.320;18.042;2023-01-08T06:17:41;6.50;;;3.38;;
25657;SDS011;13517;59.320;18.042;2023-01-08T06:20:07;9.95;;;3.65;;
25657;SDS011;13517;59.320;18.042;2023-01-08T06:22:34;6.97;;;3.55;;
25657;SDS011;13517;59.320;18.042;2023-01-08T06:25:00;7.25;;;3.88;;
25657;SDS011;13517;59.320;18.042;2023-01-08T06:27:25;8.82;;;4.75;;
25657;SDS011;13517;59.320;18.042;2023-01-08T06:29:51;8.65;;;4.45;;
25657;SDS011;13517;59.320;18.042;2023-01-08T06:32:16;10.18;;;4.25;;
25657;SDS011;13517;59.320;18.042;2023-01-08T06:34:41;8.10;;;4.50;;
25657;SDS011;13517;59.320;18.042;2023-01-08T06:37:07;8.82;;;4.45;;
25657;SDS011;13517;59.320;18.042;2023-01-08T06:39:32;10.38;;;4.47;;
25657;SDS011;13517;59.320;18.042;2023-01-08T06:41:58;11.52;;;4.60;;
25657;SDS011;13517;59.320;18.042;2023-01-08T06:44:23;10.55;;;5.10;;
25657;SDS011;13517;59.320;18.042;2023-01-08T06:46:49;10.45;;;5.53;;
25657;SDS011;13517;59.320;18.042;2023-01-08T06:49:15;10.90;;;5.15;;
25657;SDS011;13517;59.320;18.042;2023-01-08T06:51:41;11.68;;;5.82;;
25657;SDS011;13517;59.320;18.042;2023-01-08T06:54:07;11.48;;;5.38;;
25657;SDS011;13517;59.320;18.042;2023-01-08T06:56:32;11.32;;;6.22;;
25657;SDS011;13517;59.320;18.042;2023-01-08T06:58:58;13.00;;;5.43;;
25657;SDS011;13517;59.320;18.042;2023-01-08T07:01:23;10.93;;;5.18;;
25657;SDS011;13517;59.320;18.042;2023-01-08T07:03:48;13.27;;;5.43;;
25657;SDS011;13517;59.320;18.042;2023-01-08T07:06:14;10.85;;;5.18;;
25657;SDS011;13517;59.320;18.042;2023-01-08T07:08:42;11.45;;;5.22;;
25657;SDS011;13517;59.320;18.042;2023-01-08T07:11:08;10.68;;;5.25;;
25657;SDS011;13517;59.320;18.042;2023-01-08T07:13:33;13.15;;;5.75;;
25657;SDS011;13517;59.320;18.042;2023-01-08T07:16:03;11.30;;;5.28;;
25657;SDS011;13517;59.320;18.042;2023-01-08T07:18:32;12.00;;;5.43;;
25657;SDS011;13517;59.320;18.042;2023-01-08T07:20:57;10.90;;;5.50;;
25657;SDS011;13517;59.320;18.042;2023-01-08T07:23:23;11.68;;;5.78;;
25657;SDS011;13517;59.320;18.042;2023-01-08T07:25:48;11.77;;;5.95;;
25657;SDS011;13517;59.320;18.042;2023-01-08T07:28:13;13.85;;;5.80;;
25657;SDS011;13517;59.320;18.042;2023-01-08T07:30:39;13.43;;;6.35;;
25657;SDS011;13517;59.320;18.042;2023-01-08T07:33:05;15.50;;;6.90;;
25657;SDS011;13517;59.320;18.042;2023-01-08T07:35:30;12.00;;;5.88;;
25657;SDS011;13517;59.320;18.042;2023-01-08T07:37:55;14.57;;;6.00;;
25657;SDS011;13517;59.320;18.042;2023-01-08T07:40:21;12.73;;;6.30;;
25657;SDS011;13517;59.320;18.042;2023-01-08T07:42:46;14.88;;;6.82;;
25657;SDS011;13517;59.320;18.042;2023-01-08T07:45:12;18.13;;;7.07;;
25657;SDS011;13517;59.320;18.042;2023-01-08T07:47:38;14.48;;;7.57;;
25657;SDS011;13517;59.320;18.042;2023-01-08T07:50:03;15.07;;;6.82;;
25657;SDS011;13517;59.320;18.042;2023-01-08T07:52:29;15.38;;;7.60;;
25657;SDS011;13517;59.320;18.042;2023-01-08T07:54:54;16.50;;;8.07;;
25657;SDS011;13517;59.320;18.042;2023-01-08T07:57:20;21.52;;;8.50;;
25657;SDS011;13517;59.320;18.042;2023-01-08T07:59:45;20.10;;;8.93;;
25657;SDS011;13517;59.320;18.042;2023-01-08T08:02:10;24.58;;;9.85;;
25657;SDS011;13517;59.320;18.042;2023-01-08T08:04:36;20.48;;;9.23;;
25657;SDS011;13517;59.320;18.042;2023-01-08T08:07:01;22.15;;;9.80;;
25657;SDS011;13517;59.320;18.042;2023-01-08T08:09:27;31.77;;;11.02;;
25657;SDS011;13517;59.320;18.042;2023-01-08T08:11:52;31.50;;;11.13;;
25657;SDS011;13517;59.320;18.042;2023-01-08T08:14:18;28.55;;;10.80;;
25657;SDS011;13517;59.320;18.042;2023-01-08T08:16:43;29.33;;;11.50;;
25657;SDS011;13517;59.320;18.042;2023-01-08T08:19:09;35.13;;;12.43;;
25657;SDS011;13517;59.320;18.042;2023-01-08T08:21:36;30.73;;;12.20;;
25657;SDS011;13517;59.320;18.042;2023-01-08T08:24:02;27.83;;;12.23;;
25657;SDS011;13517;59.320;18.042;2023-01-08T08:26:27;26.13;;;11.88;;
25657;SDS011;13517;59.320;18.042;2023-01-08T08:28:53;29.80;;;11.88;;
25657;SDS011;13517;59.320;18.042;2023-01-08T08:31:18;24.27;;;9.25;;
25657;SDS011;13517;59.320;18.042;2023-01-08T08:33:43;24.65;;;10.63;;
25657;SDS011;13517;59.320;18.042;2023-01-08T08:36:09;28.02;;;11.10;;
25657;SDS011;13517;59.320;18.042;2023-01-08T08:38:35;23.50;;;10.60;;
25657;SDS011;13517;59.320;18.042;2023-01-08T08:41:02;26.80;;;10.15;;
25657;SDS011;13517;59.320;18.042;2023-01-08T08:43:27;21.08;;;8.98;;
25657;SDS011;13517;59.320;18.042;2023-01-08T08:45:54;19.05;;;8.68;;
25657;SDS011;13517;59.320;18.042;2023-01-08T08:48:20;21.80;;;7.90;;
25657;SDS011;13517;59.320;18.042;2023-01-08T08:50:45;17.25;;;7.47;;
25657;SDS011;13517;59.320;18.042;2023-01-08T08:53:11;15.10;;;7.07;;
25657;SDS011;13517;59.320;18.042;2023-01-08T08:55:36;18.38;;;7.78;;
25657;SDS011;13517;59.320;18.042;2023-01-08T08:58:12;13.95;;;7.13;;
25657;SDS011;13517;59.320;18.042;2023-01-08T09:00:38;15.63;;;6.82;;
25657;SDS011;13517;59.320;18.042;2023-01-08T09:03:05;16.15;;;6.53;;
25657;SDS011;13517;59.320;18.042;2023-01-08T09:05:33;14.95;;;6.07;;
25657;SDS011;13517;59.320;18.042;2023-01-08T09:08:00;13.43;;;6.38;;
25657;SDS011;13517;59.320;18.042;2023-01-08T09:10:25;13.30;;;6.22;;
25657;SDS011;13517;59.320;18.042;2023-01-08T09:12:51;21.02;;;7.85;;
25657;SDS011;13517;59.320;18.042;2023-01-08T09:15:17;19.77;;;7.07;;
25657;SDS011;13517;59.320;18.042;2023-01-08T09:17:42;27.00;;;8.65;;
25657;SDS011;13517;59.320;18.042;2023-01-08T09:20:08;31.25;;;9.80;;
25657;SDS011;13517;59.320;18.042;2023-01-08T09:22:35;39.75;;;11.15;;
25657;SDS011;13517;59.320;18.042;2023-01-08T09:25:01;35.65;;;11.30;;
25657;SDS011;13517;59.320;18.042;2023-01-08T09:27:26;40.40;;;12.60;;
25657;SDS011;13517;59.320;18.042;2023-01-08T09:29:52;58.50;;;14.48;;
25657;SDS011;13517;59.320;18.042;2023-01-08T09:32:17;98.55;;;16.92;;
25657;SDS011;13517;59.320;18.042;2023-01-08T09:34:42;74.97;;;15.85;;
25657;SDS011;13517;59.320;18.042;2023-01-08T09:37:08;148.90;;;21.13;;
25657;SDS011;13517;59.320;18.042;2023-01-08T09:39:34;83.10;;;19.10;;
25657;SDS011;13517;59.320;18.042;2023-01-08T09:42:01;115.32;;;20.08;;
25657;SDS011;13517;59.320;18.042;2023-01-08T09:44:31;122.45;;;23.65;;
25657;SDS011;13517;59.320;18.042;2023-01-08T09:47:01;277.05;;;27.98;;
25657;SDS011;13517;59.320;18.042;2023-01-08T09:49:38;109.90;;;24.27;;
25657;SDS011;13517;59.320;18.042;2023-01-08T09:52:08;122.68;;;23.95;;
25657;SDS011;13517;59.320;18.042;2023-01-08T09:54:36;169.90;;;25.73;;
25657;SDS011;13517;59.320;18.042;2023-01-08T09:57:01;345.13;;;32.05;;
25657;SDS011;13517;59.320;18.042;2023-01-08T09:59:27;147.68;;;25.65;;
25657;SDS011;13517;59.320;18.042;2023-01-08T10:01:52;381.98;;;37.15;;
25657;SDS011;13517;59.320;18.042;2023-01-08T10:06:48;235.13;;;29.50;;
25657;SDS011;13517;59.320;18.042;2023-01-08T10:09:18;287.17;;;33.53;;
25657;SDS011;13517;59.320;18.042;2023-01-08T10:11:48;265.08;;;32.13;;
25657;SDS011;13517;59.320;18.042;2023-01-08T10:14:24;163.43;;;29.90;;
25657;SDS011;13517;59.320;18.042;2023-01-08T10:16:54;305.90;;;32.35;;
25657;SDS011;13517;59.320;18.042;2023-01-08T10:19:53;200.68;;;29.35;;
25657;SDS011;13517;59.320;18.042;2023-01-08T10:22:19;572.40;;;43.10;;
25657;SDS011;13517;59.320;18.042;2023-01-08T10:24:52;241.43;;;32.22;;
25657;SDS011;13517;59.320;18.042;2023-01-08T10:27:59;309.88;;;33.65;;
25657;SDS011;13517;59.320;18.042;2023-01-08T10:30:32;175.88;;;30.15;;
25657;SDS011;13517;59.320;18.042;2023-01-08T10:33:04;215.63;;;32.03;;
25657;SDS011;13517;59.320;18.042;2023-01-08T10:35:38;234.55;;;31.52;;
25657;SDS011;13517;59.320;18.042;2023-01-08T10:38:06;153.93;;;30.17;;
25657;SDS011;13517;59.320;18.042;2023-01-08T10:40:44;151.95;;;29.90;;
25657;SDS011;13517;59.320;18.042;2023-01-08T10:45:37;248.18;;;33.47;;
25657;SDS011;13517;59.320;18.042;2023-01-08T10:48:04;171.63;;;29.98;;
25657;SDS011;13517;59.320;18.042;2023-01-08T10:50:32;150.90;;;30.88;;
25657;SDS011;13517;59.320;18.042;2023-01-08T10:53:03;157.15;;;33.08;;
25657;SDS011;13517;59.320;18.042;2023-01-08T10:55:31;141.20;;;31.85;;
25657;SDS011;13517;59.320;18.042;2023-01-08T11:00:33;164.10;;;32.92;;
25657;SDS011;13517;59.320;18.042;2023-01-08T11:03:01;122.05;;;30.35;;
25657;SDS011;13517;59.320;18.042;2023-01-08T11:05:34;131.88;;;31.90;;
25657;SDS011;13517;59.320;18.042;2023-01-08T11:08:03;125.97;;;32.90;;
25657;SDS011;13517;59.320;18.042;2023-01-08T11:10:30;122.93;;;31.70;;
25657;SDS011;13517;59.320;18.042;2023-01-08T11:12:59;157.70;;;34.35;;
25657;SDS011;13517;59.320;18.042;2023-01-08T11:15:38;155.02;;;33.95;;
25657;SDS011;13517;59.320;18.042;2023-01-08T11:20:45;120.80;;;31.38;;
25657;SDS011;13517;59.320;18.042;2023-01-08T11:23:20;142.07;;;33.63;;
25657;SDS011;13517;59.320;18.042;2023-01-08T11:32:23;146.15;;;33.30;;
25657;SDS011;13517;59.320;18.042;2023-01-08T11:39:49;127.10;;;34.55;;
25657;SDS011;13517;59.320;18.042;2023-01-08T11:56:46;134.77;;;36.25;;
25657;SDS011;13517;59.320;18.042;2023-01-08T12:10:32;155.43;;;37.00;;
25657;SDS011;13517;59.320;18.042;2023-01-08T12:16:09;146.15;;;35.88;;
25657;SDS011;13517;59.320;18.042;2023-01-08T12:18:57;123.93;;;34.28;;
25657;SDS011;13517;59.320;18.042;2023-01-08T12:32:25;123.80;;;35.33;;
25657;SDS011;13517;59.320;18.042;2023-01-08T12:34:59;131.23;;;35.78;;
25657;SDS011;13517;59.320;18.042;2023-01-08T12:42:59;117.60;;;34.47;;
25657;SDS011;13517;59.320;18.042;2023-01-08T12:45:29;131.73;;;36.47;;
25657;SDS011;13517;59.320;18.042;2023-01-08T12:48:03;113.07;;;35.17;;
25657;SDS011;13517;59.320;18.042;2023-01-08T12:56:19;113.80;;;32.72;;
25657;SDS011;13517;59.320;18.042;2023-01-08T13:04:48;109.23;;;32.63;;
25657;SDS011;13517;59.320;18.042;2023-01-08T13:07:18;117.80;;;34.45;;
25657;SDS011;13517;59.320;18.042;2023-01-08T13:09:57;112.00;;;33.20;;
25657;SDS011;13517;59.320;18.042;2023-01-08T13:12:32;112.55;;;33.72;;
25657;SDS011;13517;59.320;18.042;2023-01-08T13:15:03;109.35;;;32.72;;
25657;SDS011;13517;59.320;18.042;2023-01-08T13:17:30;106.13;;;33.58;;
25657;SDS011;13517;59.320;18.042;2023-01-08T13:19:59;105.72;;;33.25;;
25657;SDS011;13517;59.320;18.042;2023-01-08T13:22:31;117.88;;;33.97;;
25657;SDS011;13517;59.320;18.042;2023-01-08T13:27:41;109.15;;;34.42;;
25657;SDS011;13517;59.320;18.042;2023-01-08T13:33:02;112.65;;;33.33;;
25657;SDS011;13517;59.320;18.042;2023-01-08T13:35:47;115.47;;;37.05;;
25657;SDS011;13517;59.320;18.042;2023-01-08T13:38:13;102.32;;;33.88;;
25657;SDS011;13517;59.320;18.042;2023-01-08T13:43:30;110.75;;;35.78;;
25657;SDS011;13517;59.320;18.042;2023-01-08T13:48:25;121.50;;;36.05;;
25657;SDS011;13517;59.320;18.042;2023-01-08T13:56:43;121.63;;;37.45;;
25657;SDS011;13517;59.320;18.042;2023-01-08T13:59:19;116.32;;;36.10;;
25657;SDS011;13517;59.320;18.042;2023-01-08T14:01:54;123.03;;;35.28;;
25657;SDS011;13517;59.320;18.042;2023-01-08T14:04:20;117.63;;;36.38;;
25657;SDS011;13517;59.320;18.042;2023-01-08T14:06:47;125.05;;;37.83;;
25657;SDS011;13517;59.320;18.042;2023-01-08T14:09:22;124.35;;;36.22;;
25657;SDS011;13517;59.320;18.042;2023-01-08T14:11:51;121.57;;;36.47;;
25657;SDS011;13517;59.320;18.042;2023-01-08T14:14:20;111.05;;;36.55;;
25657;SDS011;13517;59.320;18.042;2023-01-08T14:16:47;112.95;;;35.90;;
25657;SDS011;13517;59.320;18.042;2023-01-08T14:19:17;115.00;;;35.75;;
25657;SDS011;13517;59.320;18.042;2023-01-08T14:21:51;114.45;;;36.47;;
25657;SDS011;13517;59.320;18.042;2023-01-08T14:24:18;122.30;;;37.65;;
25657;SDS011;13517;59.320;18.042;2023-01-08T14:29:20;114.63;;;36.03;;
25657;SDS011;13517;59.320;18.042;2023-01-08T14:31:48;121.53;;;36.88;;
25657;SDS011;13517;59.320;18.042;2023-01-08T14:34:16;97.13;;;35.33;;
25657;SDS011;13517;59.320;18.042;2023-01-08T14:36:43;110.65;;;36.80;;
25657;SDS011;13517;59.320;18.042;2023-01-08T14:39:31;114.60;;;37.83;;
25657;SDS011;13517;59.320;18.042;2023-01-08T14:41:55;113.40;;;35.53;;
25657;SDS011;13517;59.320;18.042;2023-01-08T14:44:52;104.78;;;34.97;;
25657;SDS011;13517;59.320;18.042;2023-01-08T14:47:32;104.38;;;34.10;;
25657;SDS011;13517;59.320;18.042;2023-01-08T14:50:01;93.70;;;34.35;;
25657;SDS011;13517;59.320;18.042;2023-01-08T14:52:26;98.10;;;32.55;;
25657;SDS011;13517;59.320;18.042;2023-01-08T14:54:53;87.18;;;32.47;;
25657;SDS011;13517;59.320;18.042;2023-01-08T14:57:23;87.70;;;31.67;;
25657;SDS011;13517;59.320;18.042;2023-01-08T14:59:52;89.43;;;33.58;;
25657;SDS011;13517;59.320;18.042;2023-01-08T15:02:21;92.28;;;31.38;;
25657;SDS011;13517;59.320;18.042;2023-01-08T15:05:15;92.35;;;34.55;;
25657;SDS011;13517;59.320;18.042;2023-01-08T15:08:20;84.47;;;31.10;;
25657;SDS011;13517;59.320;18.042;2023-01-08T15:10:58;89.57;;;30.80;;
25657;SDS011;13517;59.320;18.042;2023-01-08T15:13:29;93.93;;;31.90;;
25657;SDS011;13517;59.320;18.042;2023-01-08T15:16:03;78.07;;;28.75;;
25657;SDS011;13517;59.320;18.042;2023-01-08T15:18:33;93.90;;;32.10;;
25657;SDS011;13517;59.320;18.042;2023-01-08T15:21:04;86.40;;;31.13;;
25657;SDS011;13517;59.320;18.042;2023-01-08T15:23:34;92.65;;;31.83;;
25657;SDS011;13517;59.320;18.042;2023-01-08T15:26:03;92.35;;;31.70;;
25657;SDS011;13517;59.320;18.042;2023-01-08T15:28:33;85.50;;;30.80;;
25657;SDS011;13517;59.320;18.042;2023-01-08T15:30:58;84.43;;;29.85;;
25657;SDS011;13517;59.320;18.042;2023-01-08T15:33:24;80.72;;;28.63;;
25657;SDS011;13517;59.320;18.042;2023-01-08T15:35:51;85.68;;;30.20;;
25657;SDS011;13517;59.320;18.042;2023-01-08T15:38:17;71.25;;;28.58;;
25657;SDS011;13517;59.320;18.042;2023-01-08T15:40:47;77.65;;;28.08;;
25657;SDS011;13517;59.320;18.042;2023-01-08T15:43:15;82.38;;;28.90;;
25657;SDS011;13517;59.320;18.042;2023-01-08T15:45:45;80.70;;;28.20;;
25657;SDS011;13517;59.320;18.042;2023-01-08T15:48:12;78.75;;;28.67;;
25657;SDS011;13517;59.320;18.042;2023-01-08T15:50:39;88.35;;;29.08;;
25657;SDS011;13517;59.320;18.042;2023-01-08T15:53:16;85.85;;;28.02;;
25657;SDS011;13517;59.320;18.042;2023-01-08T15:55:49;77.32;;;26.80;;
25657;SDS011;13517;59.320;18.042;2023-01-08T15:58:15;81.45;;;26.90;;
25657;SDS011;13517;59.320;18.042;2023-01-08T16:00:41;70.63;;;25.17;;
25657;SDS011;13517;59.320;18.042;2023-01-08T16:03:09;65.10;;;24.95;;
25657;SDS011;13517;59.320;18.042;2023-01-08T16:05:36;68.03;;;24.77;;
25657;SDS011;13517;59.320;18.042;2023-01-08T16:08:02;54.15;;;22.13;;
25657;SDS011;13517;59.320;18.042;2023-01-08T16:10:28;57.20;;;22.23;;
25657;SDS011;13517;59.320;18.042;2023-01-08T16:12:54;55.63;;;22.38;;
25657;SDS011;13517;59.320;18.042;2023-01-08T16:15:19;50.92;;;22.08;;
25657;SDS011;13517;59.320;18.042;2023-01-08T16:17:45;52.60;;;22.40;;
25657;SDS011;13517;59.320;18.042;2023-01-08T16:20:11;53.67;;;22.90;;
25657;SDS011;13517;59.320;18.042;2023-01-08T16:22:37;54.60;;;21.75;;
25657;SDS011;13517;59.320;18.042;2023-01-08T16:25:03;59.42;;;22.50;;